Time;durP1;ratioP1;P1;durP2;ratioP2;P2;SDS_P1;SDS_P2;PMS_P1;PMS_P2;Temp;Humidity;BMP_temperature;BMP_pressure;BME280_temperature;BME280_humidity;BME280_pressure;Samples;Min_cycle;Max_cycle;Signal;HPM_P1;HPM_P2
2021/10/03 00:01:04;;;;;;;;;6.00;5.00;;;;;;;;4978586;28;51035;-60
2021/10/03 00:03:29;;;;;;;;;5.00;4.00;;;;;;;;4992159;28;51161;-60
2021/10/03 00:05:56;;;;;;;;;4.00;4.00;;;;;;;;4992235;28;51064;-60
2021/10/03 00:08:22;;;;;;;;;3.33;3.00;;;;;;;;4979035;28;51346;-60
2021/10/03 00:10:49;;;;;;;;;3.00;3.00;;;;;;;;4972218;28;52800;-60
2021/10/03 00:13:14;;;;;;;;;4.00;4.00;;;;;;;;4988089;28;51112;-60
2021/10/03 00:15:40;;;;;;;;;5.00;5.00;;;;;;;;4986425;28;50896;-60
2021/10/03 00:18:07;;;;;;;;;7.50;7.50;;;;;;;;4976555;28;50862;-60
2021/10/03 00:20:32;;;;;;;;;10.00;9.00;;;;;;;;4976016;28;52709;-60
2021/10/03 00:22:57;;;;;;;;;4.67;4.67;;;;;;;;4976310;28;50987;-60
2021/10/03 00:25:25;;;;;;;;;3.00;3.00;;;;;;;;4975604;28;51167;-60
2021/10/03 00:27:51;;;;;;;;;5.00;5.00;;;;;;;;4975842;28;51403;-60
2021/10/03 00:30:16;;;;;;;;;6.00;6.00;;;;;;;;4975522;28;52202;-60
2021/10/03 00:32:41;;;;;;;;;4.00;4.00;;;;;;;;4975667;28;50993;-60
2021/10/03 00:35:07;;;;;;;;;3.67;3.67;;;;;;;;4975876;28;50899;-59
2021/10/03 00:37:33;;;;;;;;;5.00;5.00;;;;;;;;4990123;28;51034;-59
2021/10/03 00:39:58;;;;;;;;;6.67;6.67;;;;;;;;4974987;28;51247;-59
2021/10/03 00:42:23;;;;;;;;;4.00;4.00;;;;;;;;4984614;28;50916;-59
2021/10/03 00:44:49;;;;;;;;;5.00;5.00;;;;;;;;4975585;28;51235;-59
2021/10/03 00:47:14;;;;;;;;;7.00;7.00;;;;;;;;4975778;28;50954;-59
2021/10/03 00:49:40;;;;;;;;;4.00;4.00;;;;;;;;4975092;28;52190;-59
2021/10/03 00:52:06;;;;;;;;;4.33;4.00;;;;;;;;4975644;28;50830;-59
2021/10/03 00:54:31;;;;;;;;;6.33;6.33;;;;;;;;4998653;28;50980;-59
2021/10/03 00:56:57;;;;;;;;;5.33;5.00;;;;;;;;4975212;28;51193;-59
2021/10/03 00:59:22;;;;;;;;;6.67;6.00;;;;;;;;4975044;28;52352;-60
2021/10/03 01:01:48;;;;;;;;;6.00;6.00;;;;;;;;4975519;28;51093;-59
2021/10/03 01:04:13;;;;;;;;;4.00;4.00;;;;;;;;4974918;28;51013;-60
2021/10/03 01:06:39;;;;;;;;;7.67;6.00;;;;;;;;4988158;28;51167;-59
2021/10/03 01:09:05;;;;;;;;;6.33;6.33;;;;;;;;4994535;28;52020;-59
2021/10/03 01:11:30;;;;;;;;;2.33;2.33;;;;;;;;4994433;28;51029;-59
2021/10/03 01:13:55;;;;;;;;;6.33;6.00;;;;;;;;4996239;28;51162;-59
2021/10/03 01:16:20;;;;;;;;;6.00;6.00;;;;;;;;4975275;28;51292;-60
2021/10/03 01:18:46;;;;;;;;;7.00;7.00;;;;;;;;4974880;28;52182;-59
2021/10/03 01:21:11;;;;;;;;;7.00;7.00;;;;;;;;4975168;28;51016;-59
2021/10/03 01:23:36;;;;;;;;;5.67;5.00;;;;;;;;4973980;28;51154;-59
2021/10/03 01:26:02;;;;;;;;;8.00;7.00;;;;;;;;4984447;28;51149;-59
2021/10/03 01:28:27;;;;;;;;;6.00;6.00;;;;;;;;4994456;28;52394;-60
2021/10/03 01:30:53;;;;;;;;;7.33;7.33;;;;;;;;4994735;28;50926;-59
2021/10/03 01:33:21;;;;;;;;;7.00;7.00;;;;;;;;4994543;28;51071;-59
2021/10/03 01:35:46;;;;;;;;;6.67;5.67;;;;;;;;4994704;28;50886;-59
2021/10/03 01:38:14;;;;;;;;;7.00;5.00;;;;;;;;4997633;28;51155;-58
2021/10/03 01:40:40;;;;;;;;;7.00;7.00;;;;;;;;4974500;28;51058;-59
2021/10/03 01:43:06;;;;;;;;;6.33;5.67;;;;;;;;4983141;28;51007;-59
2021/10/03 01:45:31;;;;;;;;;6.00;6.00;;;;;;;;4974905;28;50993;-59
2021/10/03 01:48:08;;;;;;;;;7.00;7.00;;;;;;;;4973225;28;51226;-60
2021/10/03 01:50:36;;;;;;;;;7.00;6.33;;;;;;;;4973454;28;50960;-59
2021/10/03 01:53:01;;;;;;;;;7.67;6.67;;;;;;;;4985214;28;51127;-60
2021/10/03 01:55:26;;;;;;;;;7.00;7.00;;;;;;;;4988361;28;50834;-60
2021/10/03 01:57:52;;;;;;;;;7.00;7.00;;;;;;;;4974246;28;52022;-60
2021/10/03 02:00:17;;;;;;;;;7.67;7.00;;;;;;;;4974872;28;50881;-60
2021/10/03 02:02:45;;;;;;;;;8.00;8.00;;;;;;;;4974591;28;50941;-60
2021/10/03 02:05:10;;;;;;;;;7.67;7.67;;;;;;;;4974999;28;51198;-60
2021/10/03 02:07:35;;;;;;;;;7.00;7.00;;;;;;;;4993844;28;52041;-59
2021/10/03 02:10:00;;;;;;;;;6.67;6.00;;;;;;;;4993570;28;51088;-60
2021/10/03 02:12:26;;;;;;;;;7.00;6.00;;;;;;;;4987735;28;51259;-60
2021/10/03 02:14:51;;;;;;;;;7.33;7.00;;;;;;;;4986793;28;51336;-60
2021/10/03 02:17:16;;;;;;;;;7.00;6.33;;;;;;;;4974145;28;51961;-60
2021/10/03 02:19:42;;;;;;;;;7.00;5.67;;;;;;;;4974303;28;51065;-60
2021/10/03 02:22:07;;;;;;;;;9.00;7.67;;;;;;;;4974429;28;51670;-60
2021/10/03 02:24:33;;;;;;;;;5.33;5.33;;;;;;;;4973881;28;51133;-60
2021/10/03 02:26:58;;;;;;;;;7.00;7.00;;;;;;;;4974117;28;52174;-60
2021/10/03 02:29:23;;;;;;;;;7.33;6.67;;;;;;;;4974153;28;50998;-61
2021/10/03 02:31:49;;;;;;;;;8.00;8.00;;;;;;;;4974447;28;51064;-60
2021/10/03 02:34:14;;;;;;;;;7.67;7.33;;;;;;;;4974927;28;51270;-60
2021/10/03 02:36:40;;;;;;;;;8.00;8.00;;;;;;;;4981188;28;51008;-60
2021/10/03 02:39:05;;;;;;;;;5.00;4.33;;;;;;;;4987912;28;50974;-60
2021/10/03 02:41:30;;;;;;;;;7.33;7.00;;;;;;;;4975529;28;51312;-60
2021/10/03 02:43:57;;;;;;;;;7.00;7.00;;;;;;;;4980863;28;51224;-60
2021/10/03 02:46:23;;;;;;;;;7.00;7.00;;;;;;;;4973649;28;52176;-60
2021/10/03 02:48:50;;;;;;;;;7.00;7.00;;;;;;;;4972508;28;50940;-60
2021/10/03 02:51:17;;;;;;;;;7.67;7.33;;;;;;;;4980323;28;51108;-60
2021/10/03 02:53:42;;;;;;;;;7.33;6.33;;;;;;;;5003973;28;51198;-60
2021/10/03 02:56:08;;;;;;;;;7.00;7.00;;;;;;;;4973254;28;52353;-60
2021/10/03 02:58:33;;;;;;;;;8.33;8.00;;;;;;;;4973579;28;51065;-60
2021/10/03 03:00:58;;;;;;;;;7.67;7.67;;;;;;;;4973757;28;51224;-60
2021/10/03 03:03:23;;;;;;;;;10.67;9.67;;;;;;;;4973830;28;51289;-60
2021/10/03 03:05:49;;;;;;;;;7.00;7.00;;;;;;;;4978965;28;52969;-59
2021/10/03 03:08:14;;;;;;;;;5.00;5.00;;;;;;;;4993250;28;51011;-60
2021/10/03 03:10:39;;;;;;;;;6.00;6.00;;;;;;;;4987564;28;51082;-60
2021/10/03 03:13:04;;;;;;;;;6.00;6.00;;;;;;;;4983760;28;51117;-60
2021/10/03 03:15:30;;;;;;;;;8.00;7.00;;;;;;;;4976124;28;51003;-60
2021/10/03 03:17:55;;;;;;;;;7.67;7.00;;;;;;;;4973468;28;51003;-60
2021/10/03 03:20:20;;;;;;;;;7.67;7.67;;;;;;;;4973393;28;51075;-60
2021/10/03 03:22:45;;;;;;;;;5.33;5.33;;;;;;;;4973523;28;51146;-60
2021/10/03 03:25:12;;;;;;;;;6.67;6.67;;;;;;;;4974663;28;51142;-60
2021/10/03 03:27:38;;;;;;;;;7.00;6.00;;;;;;;;4993090;28;50889;-60
2021/10/03 03:30:04;;;;;;;;;7.00;6.33;;;;;;;;4992861;28;50897;-60
2021/10/03 03:32:30;;;;;;;;;7.67;7.00;;;;;;;;4991814;28;51086;-60
2021/10/03 03:34:55;;;;;;;;;6.33;5.33;;;;;;;;4992327;28;52156;-59
2021/10/03 03:37:20;;;;;;;;;5.00;5.00;;;;;;;;4998169;28;51051;-59
2021/10/03 03:39:45;;;;;;;;;7.67;7.00;;;;;;;;4977258;28;51188;-60
2021/10/03 03:42:11;;;;;;;;;9.33;7.33;;;;;;;;4981087;28;50940;-60
2021/10/03 03:44:36;;;;;;;;;7.67;6.67;;;;;;;;4976250;28;51213;-59
2021/10/03 03:47:01;;;;;;;;;8.00;8.00;;;;;;;;4975931;28;51006;-59
2021/10/03 03:49:27;;;;;;;;;7.33;6.67;;;;;;;;4976716;28;51195;-59
2021/10/03 03:51:52;;;;;;;;;9.33;9.00;;;;;;;;4976840;28;51290;-60
2021/10/03 03:54:17;;;;;;;;;7.00;6.00;;;;;;;;5000590;28;51932;-59
2021/10/03 03:56:43;;;;;;;;;8.00;7.67;;;;;;;;4976562;28;51244;-59
2021/10/03 03:59:08;;;;;;;;;6.00;6.00;;;;;;;;4976341;28;51091;-59
2021/10/03 04:01:33;;;;;;;;;8.33;8.33;;;;;;;;4976714;28;51289;-60
2021/10/03 04:03:58;;;;;;;;;8.67;7.00;;;;;;;;4976131;28;52306;-60
2021/10/03 04:06:23;;;;;;;;;6.33;6.33;;;;;;;;4976553;28;51034;-60
2021/10/03 04:08:51;;;;;;;;;8.00;8.00;;;;;;;;4979332;28;51026;-60
2021/10/03 04:11:16;;;;;;;;;9.67;8.00;;;;;;;;4976546;28;50921;-60
2021/10/03 04:13:41;;;;;;;;;8.00;8.00;;;;;;;;4989602;28;51316;-60
2021/10/03 04:16:06;;;;;;;;;6.33;6.33;;;;;;;;4976353;28;50969;-60
2021/10/03 04:18:31;;;;;;;;;9.33;8.67;;;;;;;;4976314;28;51402;-60
2021/10/03 04:20:57;;;;;;;;;8.33;8.33;;;;;;;;4976453;28;51233;-60
2021/10/03 04:23:22;;;;;;;;;7.67;7.67;;;;;;;;4975775;28;50894;-60
2021/10/03 04:25:47;;;;;;;;;7.33;7.33;;;;;;;;4976039;28;51255;-60
2021/10/03 04:28:12;;;;;;;;;7.00;6.00;;;;;;;;4976171;28;51091;-60
2021/10/03 04:30:37;;;;;;;;;7.00;7.00;;;;;;;;4976464;28;51258;-60
2021/10/03 04:33:03;;;;;;;;;10.00;10.00;;;;;;;;4975646;28;51067;-60
2021/10/03 04:35:28;;;;;;;;;7.67;7.67;;;;;;;;4976225;28;50945;-60
2021/10/03 04:37:53;;;;;;;;;10.00;9.00;;;;;;;;4988826;28;50968;-60
2021/10/03 04:40:19;;;;;;;;;8.67;8.00;;;;;;;;4975827;28;51306;-60
2021/10/03 04:42:45;;;;;;;;;7.33;7.00;;;;;;;;4983822;28;51233;-60
2021/10/03 04:45:10;;;;;;;;;9.00;9.00;;;;;;;;4975983;28;51039;-60
2021/10/03 04:47:35;;;;;;;;;7.33;7.33;;;;;;;;4971322;28;51159;-60
2021/10/03 04:50:01;;;;;;;;;9.00;9.00;;;;;;;;4977208;28;51419;-60
2021/10/03 04:52:26;;;;;;;;;9.00;8.67;;;;;;;;4978798;28;51950;-60
2021/10/03 04:54:51;;;;;;;;;10.33;9.67;;;;;;;;4996427;28;51064;-60
2021/10/03 04:57:17;;;;;;;;;10.67;10.00;;;;;;;;4975008;28;50944;-60
2021/10/03 04:59:42;;;;;;;;;9.00;9.00;;;;;;;;4975545;28;50960;-60
2021/10/03 05:02:07;;;;;;;;;9.00;9.00;;;;;;;;4975385;28;52931;-60
2021/10/03 05:04:32;;;;;;;;;8.33;8.33;;;;;;;;4975618;28;50968;-60
2021/10/03 05:06:58;;;;;;;;;9.00;9.00;;;;;;;;4988513;28;51059;-60
2021/10/03 05:09:23;;;;;;;;;6.67;6.67;;;;;;;;4975305;28;51086;-60
2021/10/03 05:11:48;;;;;;;;;9.00;9.00;;;;;;;;4975184;28;51878;-60
2021/10/03 05:14:13;;;;;;;;;10.00;10.00;;;;;;;;4988999;28;51083;-59
2021/10/03 05:16:38;;;;;;;;;10.00;9.33;;;;;;;;4975258;28;50944;-60
2021/10/03 05:19:04;;;;;;;;;9.67;8.67;;;;;;;;4975609;28;51284;-60
2021/10/03 05:21:30;;;;;;;;;9.33;8.67;;;;;;;;4975012;28;51077;-60
2021/10/03 05:23:55;;;;;;;;;10.33;9.67;;;;;;;;4975145;28;50940;-60
2021/10/03 05:26:20;;;;;;;;;12.33;11.00;;;;;;;;4984227;28;50826;-60
2021/10/03 05:28:46;;;;;;;;;8.00;8.00;;;;;;;;4975398;28;51940;-60
2021/10/03 05:31:11;;;;;;;;;8.00;7.00;;;;;;;;4976310;28;50993;-60
2021/10/03 05:33:36;;;;;;;;;4.67;4.67;;;;;;;;4986671;28;50959;-60
2021/10/03 05:36:02;;;;;;;;;1.00;1.00;;;;;;;;4975100;28;50937;-60
2021/10/03 05:38:27;;;;;;;;;0.67;0.67;;;;;;;;4989059;28;50841;-59
2021/10/03 05:40:52;;;;;;;;;0.00;0.00;;;;;;;;4974602;28;52257;-60
2021/10/03 05:43:18;;;;;;;;;1.00;0.00;;;;;;;;4983957;28;50988;-60
2021/10/03 05:45:43;;;;;;;;;0.00;0.00;;;;;;;;4975028;28;51006;-60
2021/10/03 05:48:08;;;;;;;;;0.00;0.00;;;;;;;;4975406;28;51370;-59
2021/10/03 05:50:34;;;;;;;;;0.00;0.00;;;;;;;;4974924;28;52347;-60
2021/10/03 05:52:59;;;;;;;;;0.00;0.00;;;;;;;;4986473;28;51050;-59
2021/10/03 05:55:24;;;;;;;;;0.00;0.00;;;;;;;;4987603;28;51171;-60
2021/10/03 05:57:50;;;;;;;;;0.00;0.00;;;;;;;;4976140;28;51251;-60
2021/10/03 06:00:15;;;;;;;;;0.00;0.00;;;;;;;;4975340;28;51161;-60
2021/10/03 06:02:40;;;;;;;;;0.00;0.00;;;;;;;;4975245;28;51079;-60
2021/10/03 06:05:06;;;;;;;;;0.00;0.00;;;;;;;;4974741;28;51157;-60
2021/10/03 06:07:31;;;;;;;;;0.33;0.33;;;;;;;;4988119;28;51005;-60
2021/10/03 06:09:56;;;;;;;;;1.00;0.00;;;;;;;;4973727;28;52983;-60
2021/10/03 06:12:21;;;;;;;;;0.00;0.00;;;;;;;;4974629;28;50984;-60
2021/10/03 06:14:46;;;;;;;;;0.00;0.00;;;;;;;;5000867;28;50998;-60
2021/10/03 06:17:12;;;;;;;;;0.00;0.00;;;;;;;;4975257;28;50984;-60
2021/10/03 06:19:37;;;;;;;;;1.00;0.00;;;;;;;;4974426;28;52277;-60
2021/10/03 06:22:02;;;;;;;;;0.00;0.00;;;;;;;;4974279;28;50959;-60
2021/10/03 06:24:28;;;;;;;;;0.00;0.00;;;;;;;;4974308;28;51204;-59
2021/10/03 06:26:53;;;;;;;;;0.00;0.00;;;;;;;;4974467;28;51210;-61
2021/10/03 06:29:19;;;;;;;;;0.00;0.00;;;;;;;;4974570;28;52263;-60
2021/10/03 06:31:44;;;;;;;;;0.00;0.00;;;;;;;;4974296;28;50921;-60
2021/10/03 06:34:09;;;;;;;;;0.00;0.00;;;;;;;;4974410;28;51107;-61
2021/10/03 06:36:34;;;;;;;;;1.00;1.00;;;;;;;;4974449;28;51489;-60
2021/10/03 06:39:00;;;;;;;;;0.33;0.00;;;;;;;;4988008;28;52106;-61
2021/10/03 06:41:25;;;;;;;;;0.00;0.00;;;;;;;;4974872;28;51093;-60
2021/10/03 06:43:50;;;;;;;;;0.00;0.00;;;;;;;;4982210;28;51478;-61
2021/10/03 06:46:16;;;;;;;;;0.00;0.00;;;;;;;;4974092;28;50942;-60
2021/10/03 06:48:42;;;;;;;;;2.00;2.00;;;;;;;;4973919;28;52029;-60
2021/10/03 06:51:08;;;;;;;;;1.00;1.00;;;;;;;;4973853;28;50882;-60
2021/10/03 06:53:34;;;;;;;;;1.00;0.00;;;;;;;;4994810;28;51301;-60
2021/10/03 06:56:00;;;;;;;;;0.00;0.00;;;;;;;;4976969;28;51202;-60
2021/10/03 06:58:26;;;;;;;;;1.00;0.67;;;;;;;;4973762;28;52896;-60
2021/10/03 07:00:51;;;;;;;;;0.00;0.00;;;;;;;;4973727;28;51074;-60
2021/10/03 07:03:16;;;;;;;;;0.00;0.00;;;;;;;;4974607;28;50944;-61
2021/10/03 07:05:41;;;;;;;;;0.00;0.00;;;;;;;;4990417;28;50970;-60
2021/10/03 07:08:07;;;;;;;;;0.00;0.00;;;;;;;;4994659;28;50983;-60
2021/10/03 07:10:32;;;;;;;;;1.00;1.00;;;;;;;;4988937;28;51005;-60
2021/10/03 07:12:58;;;;;;;;;6.00;5.33;;;;;;;;4981945;28;51177;-60
2021/10/03 07:15:23;;;;;;;;;1.00;1.00;;;;;;;;4977940;28;51153;-60
2021/10/03 07:17:48;;;;;;;;;0.00;0.00;;;;;;;;4973643;28;51908;-60
2021/10/03 07:20:14;;;;;;;;;1.00;0.00;;;;;;;;4973311;28;51058;-60
2021/10/03 07:22:39;;;;;;;;;2.00;1.00;;;;;;;;4973008;28;50925;-60
2021/10/03 07:25:05;;;;;;;;;0.00;0.00;;;;;;;;4973287;28;50932;-61
2021/10/03 07:27:30;;;;;;;;;0.00;0.00;;;;;;;;4991300;28;53073;-60
2021/10/03 07:29:55;;;;;;;;;1.00;1.00;;;;;;;;4992985;28;50937;-60
2021/10/03 07:32:21;;;;;;;;;1.00;1.00;;;;;;;;4993286;28;51265;-60
2021/10/03 07:34:46;;;;;;;;;1.00;1.00;;;;;;;;4993090;28;50965;-60
2021/10/03 07:37:11;;;;;;;;;3.00;2.33;;;;;;;;4996903;28;51061;-60
2021/10/03 07:39:36;;;;;;;;;4.67;3.33;;;;;;;;4979623;28;51183;-61
2021/10/03 07:42:02;;;;;;;;;4.00;3.67;;;;;;;;4979372;28;51149;-60
2021/10/03 07:44:28;;;;;;;;;1.00;1.00;;;;;;;;4976794;28;50922;-60
2021/10/03 07:46:53;;;;;;;;;1.00;1.00;;;;;;;;4972850;28;51165;-61
2021/10/03 07:49:18;;;;;;;;;2.67;2.67;;;;;;;;4973094;28;50832;-59
2021/10/03 07:51:44;;;;;;;;;11.33;11.33;;;;;;;;4973096;28;51586;-59
2021/10/03 07:54:09;;;;;;;;;2.00;1.67;;;;;;;;4998769;28;51285;-60
2021/10/03 07:56:34;;;;;;;;;1.33;1.33;;;;;;;;4972857;28;52634;-60
2021/10/03 07:58:59;;;;;;;;;2.00;2.00;;;;;;;;4973067;28;51212;-60
2021/10/03 08:01:25;;;;;;;;;3.00;3.00;;;;;;;;4972957;28;51112;-59
2021/10/03 08:03:50;;;;;;;;;1.67;1.00;;;;;;;;4983055;28;50928;-59
2021/10/03 08:06:17;;;;;;;;;2.33;2.00;;;;;;;;4982227;28;51105;-59
2021/10/03 08:08:42;;;;;;;;;1.00;1.00;;;;;;;;4992292;28;51087;-59
2021/10/03 08:11:08;;;;;;;;;1.33;1.33;;;;;;;;4991195;28;51243;-58
2021/10/03 08:13:34;;;;;;;;;1.33;1.33;;;;;;;;4996997;28;50973;-59
2021/10/03 08:15:59;;;;;;;;;1.00;1.00;;;;;;;;4972712;28;51048;-58
2021/10/03 08:18:24;;;;;;;;;1.00;1.00;;;;;;;;4985676;28;50944;-61
2021/10/03 08:20:51;;;;;;;;;2.33;2.00;;;;;;;;4972680;28;51357;-61
2021/10/03 08:23:17;;;;;;;;;3.00;2.00;;;;;;;;4972461;28;51049;-61
2021/10/03 08:25:42;;;;;;;;;2.33;2.33;;;;;;;;4971742;28;50965;-60
2021/10/03 08:28:07;;;;;;;;;1.33;1.33;;;;;;;;4972247;28;50849;-60
2021/10/03 08:30:32;;;;;;;;;3.00;3.00;;;;;;;;4972628;28;51165;-60
2021/10/03 08:32:57;;;;;;;;;3.00;3.00;;;;;;;;4974164;28;51159;-61
2021/10/03 08:35:23;;;;;;;;;2.33;2.33;;;;;;;;4975903;28;52169;-61
2021/10/03 08:37:48;;;;;;;;;2.33;2.33;;;;;;;;4990431;28;51062;-60
2021/10/03 08:40:13;;;;;;;;;4.00;3.00;;;;;;;;4975625;28;50944;-60
2021/10/03 08:42:39;;;;;;;;;1.33;1.00;;;;;;;;4985068;28;50817;-61
2021/10/03 08:45:05;;;;;;;;;2.00;2.00;;;;;;;;4975473;28;51199;-60
2021/10/03 08:47:31;;;;;;;;;4.00;3.00;;;;;;;;4975768;28;51203;-60
2021/10/03 08:49:57;;;;;;;;;2.00;2.00;;;;;;;;4975685;28;51590;-61
2021/10/03 08:52:23;;;;;;;;;2.00;2.00;;;;;;;;4977195;28;51049;-60
2021/10/03 08:54:48;;;;;;;;;3.00;2.67;;;;;;;;4997973;28;51088;-60
2021/10/03 08:57:13;;;;;;;;;3.00;3.00;;;;;;;;4975034;28;51043;-61
2021/10/03 08:59:58;;;;;;;;;3.00;3.00;;;;;;;;4975581;28;51295;-60
2021/10/03 09:02:24;;;;;;;;;5.00;4.00;;;;;;;;4983527;28;51062;-60
2021/10/03 09:04:57;;;;;;;;;4.00;3.33;;;;;;;;4975326;28;51771;-61
2021/10/03 09:07:22;;;;;;;;;3.00;2.33;;;;;;;;4993392;28;51239;-60
2021/10/03 09:09:47;;;;;;;;;3.00;3.00;;;;;;;;4995004;28;51078;-60
2021/10/03 09:12:26;;;;;;;;;2.00;2.00;;;;;;;;4995076;28;51203;-61
2021/10/03 09:14:52;;;;;;;;;2.33;2.33;;;;;;;;4975099;28;52192;-60
2021/10/03 09:17:18;;;;;;;;;2.00;2.00;;;;;;;;4975514;28;51033;-60
2021/10/03 09:20:02;;;;;;;;;3.67;2.00;;;;;;;;4975082;28;50956;-60
2021/10/03 09:22:27;;;;;;;;;4.00;4.00;;;;;;;;4973749;28;50934;-59
2021/10/03 09:24:52;;;;;;;;;3.67;3.67;;;;;;;;4974400;28;51170;-61
2021/10/03 09:27:17;;;;;;;;;11.00;11.00;;;;;;;;4992143;28;50905;-60
2021/10/03 09:29:42;;;;;;;;;3.00;3.00;;;;;;;;4994467;28;51204;-60
2021/10/03 09:32:15;;;;;;;;;3.00;3.00;;;;;;;;4994626;28;51374;-61
2021/10/03 09:34:47;;;;;;;;;1.00;1.00;;;;;;;;4993819;28;52236;-60
2021/10/03 09:37:18;;;;;;;;;2.00;2.00;;;;;;;;4998276;28;51122;-61
2021/10/03 09:39:43;;;;;;;;;3.00;3.00;;;;;;;;4977783;28;51074;-60
2021/10/03 09:42:12;;;;;;;;;2.33;2.33;;;;;;;;4981336;28;50861;-60
2021/10/03 09:44:38;;;;;;;;;3.00;2.33;;;;;;;;4975007;28;51132;-60
2021/10/03 09:47:05;;;;;;;;;1.00;1.00;;;;;;;;4974315;28;51040;-60
2021/10/03 09:49:30;;;;;;;;;0.00;0.00;;;;;;;;4974713;28;50825;-60
2021/10/03 09:51:56;;;;;;;;;0.00;0.00;;;;;;;;4974555;28;51420;-59
2021/10/03 09:54:23;;;;;;;;;0.00;0.00;;;;;;;;4997443;28;51215;-59
2021/10/03 09:56:50;;;;;;;;;0.00;0.00;;;;;;;;4973250;28;51044;-60
2021/10/03 09:59:15;;;;;;;;;1.00;1.00;;;;;;;;4972281;28;51325;-61
2021/10/03 10:01:45;;;;;;;;;1.67;1.67;;;;;;;;4979741;28;51329;-60
2021/10/03 10:04:11;;;;;;;;;0.00;0.00;;;;;;;;4973386;28;52182;-61
2021/10/03 10:06:37;;;;;;;;;0.33;0.33;;;;;;;;4985864;28;50924;-61
2021/10/03 10:09:07;;;;;;;;;0.00;0.00;;;;;;;;4992679;28;51101;-59
2021/10/03 10:11:38;;;;;;;;;1.00;1.00;;;;;;;;4993388;28;51317;-60
2021/10/03 10:14:04;;;;;;;;;0.33;0.00;;;;;;;;4993139;28;51965;-60
2021/10/03 10:16:29;;;;;;;;;0.33;0.33;;;;;;;;4973515;28;50904;-60
2021/10/03 10:19:13;;;;;;;;;0.67;0.67;;;;;;;;4973761;28;50944;-60
2021/10/03 10:21:38;;;;;;;;;2.00;2.00;;;;;;;;4973584;28;52080;-60
2021/10/03 10:24:24;;;;;;;;;0.00;0.00;;;;;;;;4973128;28;51921;-60
2021/10/03 10:26:49;;;;;;;;;5.67;4.33;;;;;;;;4971984;28;51033;-60
2021/10/03 10:29:32;;;;;;;;;2.00;1.33;;;;;;;;4973741;28;51033;-60
2021/10/03 10:32:10;;;;;;;;;3.00;3.00;;;;;;;;4981299;28;52067;-60
2021/10/03 10:34:55;;;;;;;;;0.00;0.00;;;;;;;;4992780;28;53403;-60
2021/10/03 10:37:20;;;;;;;;;0.67;0.33;;;;;;;;4998173;28;50909;-60
2021/10/03 10:39:45;;;;;;;;;1.33;1.33;;;;;;;;4974541;28;51159;-58
2021/10/03 10:42:24;;;;;;;;;3.00;2.00;;;;;;;;4980313;28;51334;-59
2021/10/03 10:44:49;;;;;;;;;2.00;1.33;;;;;;;;4985386;28;52056;-59
2021/10/03 10:47:18;;;;;;;;;2.00;1.00;;;;;;;;4972554;28;50880;-60
2021/10/03 10:49:45;;;;;;;;;4.33;4.33;;;;;;;;4972928;28;51097;-59
2021/10/03 10:52:19;;;;;;;;;1.00;1.00;;;;;;;;4972685;28;51267;-60
2021/10/03 10:55:04;;;;;;;;;2.00;1.00;;;;;;;;4971997;28;52042;-60
2021/10/03 10:57:30;;;;;;;;;2.00;2.00;;;;;;;;4972192;28;50988;-59
2021/10/03 11:00:14;;;;;;;;;1.00;0.00;;;;;;;;4975547;28;50962;-59
2021/10/03 11:02:49;;;;;;;;;1.67;1.67;;;;;;;;4980099;28;51551;-59
2021/10/03 11:05:36;;;;;;;;;1.00;1.00;;;;;;;;4991362;28;51913;-59
2021/10/03 11:08:18;;;;;;;;;1.33;1.33;;;;;;;;4985335;28;50920;-58
2021/10/03 11:11:02;;;;;;;;;3.00;2.00;;;;;;;;4991461;28;50970;-59
2021/10/03 11:13:41;;;;;;;;;3.67;3.00;;;;;;;;4994803;28;51044;-59
2021/10/03 11:16:22;;;;;;;;;3.00;3.00;;;;;;;;4991470;28;52199;-59
2021/10/03 11:18:51;;;;;;;;;2.00;2.00;;;;;;;;4991460;28;50977;-59
2021/10/03 11:21:19;;;;;;;;;2.00;1.00;;;;;;;;4992124;28;51016;-59
2021/10/03 11:23:45;;;;;;;;;3.67;3.00;;;;;;;;4991463;28;51234;-61
2021/10/03 11:26:10;;;;;;;;;4.00;4.00;;;;;;;;4991115;28;52162;-59
2021/10/03 11:28:48;;;;;;;;;3.33;3.33;;;;;;;;4991961;28;50849;-59
2021/10/03 11:31:13;;;;;;;;;3.33;2.00;;;;;;;;4991859;28;50983;-59
2021/10/03 11:33:46;;;;;;;;;2.00;1.67;;;;;;;;4992193;28;51003;-59
2021/10/03 11:36:11;;;;;;;;;2.33;2.33;;;;;;;;4991497;28;52227;-60
2021/10/03 11:38:46;;;;;;;;;4.67;4.33;;;;;;;;4989839;28;51109;-61
2021/10/03 11:41:11;;;;;;;;;2.33;2.00;;;;;;;;4972806;28;51068;-58
2021/10/03 11:43:36;;;;;;;;;4.33;3.67;;;;;;;;4980540;28;51284;-59
2021/10/03 11:46:05;;;;;;;;;3.00;3.00;;;;;;;;4971672;28;51989;-59
2021/10/03 11:48:30;;;;;;;;;5.67;5.67;;;;;;;;4971936;28;51221;-59
2021/10/03 11:50:55;;;;;;;;;1.67;1.67;;;;;;;;4971443;28;51113;-59
2021/10/03 11:53:27;;;;;;;;;1.33;1.33;;;;;;;;4989398;28;50990;-59
2021/10/03 11:56:04;;;;;;;;;2.00;2.00;;;;;;;;4975636;28;52009;-60
2021/10/03 11:58:34;;;;;;;;;4.00;4.00;;;;;;;;4985315;28;50889;-60
2021/10/03 12:01:02;;;;;;;;;2.00;2.00;;;;;;;;4991087;28;50921;-60
2021/10/03 12:03:30;;;;;;;;;2.67;2.33;;;;;;;;4991338;28;51241;-59
2021/10/03 12:05:55;;;;;;;;;2.33;2.33;;;;;;;;4989622;28;51642;-59
2021/10/03 12:08:21;;;;;;;;;2.67;2.67;;;;;;;;4993230;28;50954;-59
2021/10/03 12:10:46;;;;;;;;;1.67;1.67;;;;;;;;4994462;28;50975;-59
2021/10/03 12:13:18;;;;;;;;;2.00;1.00;;;;;;;;5001138;28;51103;-59
2021/10/03 12:15:53;;;;;;;;;2.67;2.33;;;;;;;;4974996;28;51751;-59
2021/10/03 12:18:24;;;;;;;;;1.00;1.00;;;;;;;;4974670;28;51043;-59
2021/10/03 12:20:49;;;;;;;;;2.00;2.00;;;;;;;;4974294;28;51068;-59
2021/10/03 12:23:16;;;;;;;;;1.00;1.00;;;;;;;;4973988;28;51295;-59
2021/10/03 12:25:41;;;;;;;;;1.00;1.00;;;;;;;;4973982;28;52848;-59
2021/10/03 12:28:06;;;;;;;;;1.00;1.00;;;;;;;;4974392;28;50802;-60
2021/10/03 12:30:47;;;;;;;;;1.67;1.67;;;;;;;;4974658;28;50942;-58
2021/10/03 12:33:12;;;;;;;;;4.00;2.00;;;;;;;;4974628;28;51180;-60
2021/10/03 12:35:38;;;;;;;;;3.00;2.00;;;;;;;;4974526;28;52830;-59
2021/10/03 12:38:04;;;;;;;;;2.00;2.00;;;;;;;;4988461;28;51095;-59
2021/10/03 12:40:29;;;;;;;;;0.67;0.67;;;;;;;;4974001;28;51134;-59
2021/10/03 12:42:56;;;;;;;;;1.67;1.67;;;;;;;;4983482;28;51016;-60
2021/10/03 12:45:21;;;;;;;;;2.00;1.00;;;;;;;;4973986;28;51167;-59
2021/10/03 12:47:47;;;;;;;;;0.67;0.67;;;;;;;;4973988;28;51111;-59
2021/10/03 12:50:12;;;;;;;;;3.00;3.00;;;;;;;;4974648;28;51308;-61
2021/10/03 12:52:37;;;;;;;;;0.33;0.33;;;;;;;;4980087;28;50894;-60
2021/10/03 12:55:03;;;;;;;;;2.00;1.33;;;;;;;;4991427;28;51964;-60
2021/10/03 12:57:28;;;;;;;;;2.00;2.00;;;;;;;;4973597;28;50989;-60
2021/10/03 12:59:53;;;;;;;;;3.00;3.00;;;;;;;;4974126;28;50882;-60
2021/10/03 13:02:19;;;;;;;;;1.33;1.33;;;;;;;;4973929;28;50946;-60
2021/10/03 13:04:44;;;;;;;;;2.67;1.67;;;;;;;;4973522;28;50950;-60
2021/10/03 13:07:09;;;;;;;;;1.67;1.67;;;;;;;;4990012;28;50924;-61
2021/10/03 13:09:34;;;;;;;;;1.67;1.67;;;;;;;;4993192;28;50951;-60
2021/10/03 13:12:00;;;;;;;;;0.33;0.33;;;;;;;;4993419;28;50879;-60
2021/10/03 13:14:25;;;;;;;;;1.67;1.67;;;;;;;;4990110;28;51399;-59
2021/10/03 13:16:51;;;;;;;;;1.67;1.67;;;;;;;;4973287;28;50977;-60
2021/10/03 13:19:16;;;;;;;;;0.67;0.67;;;;;;;;4972580;28;51107;-62
2021/10/03 13:21:42;;;;;;;;;0.67;0.33;;;;;;;;4973855;28;51095;-60
2021/10/03 13:24:07;;;;;;;;;1.67;1.00;;;;;;;;4971696;28;51720;-60
2021/10/03 13:26:33;;;;;;;;;4.00;3.67;;;;;;;;4986987;28;51079;-59
2021/10/03 13:28:58;;;;;;;;;3.33;2.67;;;;;;;;4992937;28;50985;-60
2021/10/03 13:31:23;;;;;;;;;2.67;2.67;;;;;;;;4992827;28;51394;-61
2021/10/03 13:33:49;;;;;;;;;1.00;0.00;;;;;;;;4992809;28;51145;-60
2021/10/03 13:36:16;;;;;;;;;3.00;2.00;;;;;;;;4992734;28;51032;-59
2021/10/03 13:38:41;;;;;;;;;1.00;1.00;;;;;;;;4990604;28;51158;-60
2021/10/03 13:41:06;;;;;;;;;1.00;0.00;;;;;;;;4973371;28;50798;-61
2021/10/03 13:43:33;;;;;;;;;1.00;1.00;;;;;;;;4982242;28;50976;-60
2021/10/03 13:45:58;;;;;;;;;8.00;6.67;;;;;;;;4972716;28;51164;-59
2021/10/03 13:48:23;;;;;;;;;6.67;5.67;;;;;;;;4972707;28;50907;-60
2021/10/03 13:50:48;;;;;;;;;9.33;7.33;;;;;;;;4972400;28;50943;-60
2021/10/03 13:53:14;;;;;;;;;2.00;1.00;;;;;;;;4988454;28;51214;-59
2021/10/03 13:55:39;;;;;;;;;3.00;3.00;;;;;;;;4992134;28;51239;-58
2021/10/03 13:58:05;;;;;;;;;1.33;1.00;;;;;;;;4971276;28;51165;-60
2021/10/03 14:00:30;;;;;;;;;4.00;3.00;;;;;;;;4972550;28;50913;-61
2021/10/03 14:02:55;;;;;;;;;1.00;1.00;;;;;;;;4972733;28;52319;-58
2021/10/03 14:05:20;;;;;;;;;1.00;1.00;;;;;;;;4974255;28;51161;-59
2021/10/03 14:07:46;;;;;;;;;0.67;0.67;;;;;;;;4992624;28;50980;-60
2021/10/03 14:10:12;;;;;;;;;5.67;5.00;;;;;;;;4991029;28;51267;-62
2021/10/03 14:12:38;;;;;;;;;2.00;2.00;;;;;;;;4994502;28;51968;-61
2021/10/03 14:15:04;;;;;;;;;2.00;1.00;;;;;;;;4982535;28;51142;-60
2021/10/03 14:17:30;;;;;;;;;2.00;1.33;;;;;;;;4972749;28;51012;-60
2021/10/03 14:19:55;;;;;;;;;2.00;2.00;;;;;;;;4985333;28;51325;-60
2021/10/03 14:22:20;;;;;;;;;3.33;2.00;;;;;;;;4971945;28;51461;-60
2021/10/03 14:24:45;;;;;;;;;2.00;1.00;;;;;;;;4971374;28;51238;-60
2021/10/03 14:27:10;;;;;;;;;2.00;2.00;;;;;;;;4972457;28;50905;-60
2021/10/03 14:29:37;;;;;;;;;0.00;0.00;;;;;;;;4972302;28;50867;-60
2021/10/03 14:32:03;;;;;;;;;2.00;2.00;;;;;;;;4971527;28;50989;-59
2021/10/03 14:34:28;;;;;;;;;1.00;1.00;;;;;;;;4973620;28;51138;-59
2021/10/03 14:36:53;;;;;;;;;3.33;3.00;;;;;;;;4987227;28;51061;-59
2021/10/03 14:39:18;;;;;;;;;2.00;2.00;;;;;;;;4981778;28;50914;-60